Time;durP1;ratioP1;P1;durP2;ratioP2;P2;SDS_P1;SDS_P2;PMS_P1;PMS_P2;Temp;Humidity;BMP_temperature;BMP_pressure;BME280_temperature;BME280_humidity;BME280_pressure;Samples;Min_cycle;Max_cycle;Signal;HPM_P1;HPM_P2
2023/04/07 00:01:51;;;;;;;20.08;14.73;;;8.00;87.70;;;;;;5047462;28;20203;-76
2023/04/07 00:04:31;;;;;;;19.35;15.05;;;8.00;88.00;;;;;;5036302;28;20303;-76
2023/04/07 00:07:00;;;;;;;17.08;12.88;;;7.90;88.00;;;;;;5044330;28;20659;-75
2023/04/07 00:09:48;;;;;;;18.40;13.50;;;7.80;88.30;;;;;;5035928;28;20287;-77
2023/04/07 00:12:16;;;;;;;20.00;13.90;;;7.80;88.70;;;;;;5047473;28;20199;-75
2023/04/07 00:14:45;;;;;;;16.50;12.45;;;7.80;88.60;;;;;;5036910;28;20230;-75
2023/04/07 00:17:25;;;;;;;16.17;12.43;;;7.80;88.90;;;;;;5045905;28;20261;-76
2023/04/07 00:19:55;;;;;;;15.50;12.48;;;7.80;89.00;;;;;;5043138;28;20570;-75
2023/04/07 00:22:24;;;;;;;19.25;11.63;;;7.80;89.20;;;;;;5039103;28;20266;-75
2023/04/07 00:25:01;;;;;;;16.55;12.50;;;7.70;89.40;;;;;;5044606;28;20261;-76
2023/04/07 00:27:32;;;;;;;19.90;12.73;;;7.70;89.60;;;;;;5039003;28;20210;-75
2023/04/07 00:30:06;;;;;;;20.42;14.77;;;7.60;89.90;;;;;;5044472;28;20285;-76
2023/04/07 00:32:37;;;;;;;14.68;12.27;;;7.60;90.10;;;;;;5043912;28;20229;-76
2023/04/07 00:35:10;;;;;;;18.17;12.77;;;7.60;90.20;;;;;;5048513;28;20223;-76
2023/04/07 00:37:41;;;;;;;16.95;13.02;;;7.50;90.20;;;;;;5031165;28;20210;-75
2023/04/07 00:40:16;;;;;;;17.58;13.32;;;7.40;90.20;;;;;;5042643;28;20649;-75
2023/04/07 00:42:52;;;;;;;18.73;13.48;;;7.40;90.40;;;;;;5049185;28;20229;-76
2023/04/07 00:45:24;;;;;;;14.23;11.98;;;7.30;90.50;;;;;;5044357;28;20285;-76
2023/04/07 00:48:03;;;;;;;18.25;13.63;;;7.30;90.50;;;;;;5039377;28;20553;-76
2023/04/07 00:50:39;;;;;;;20.55;12.90;;;7.30;90.50;;;;;;5042329;28;20206;-75
2023/04/07 00:53:17;;;;;;;17.25;13.07;;;7.30;90.50;;;;;;5049807;28;20762;-75
2023/04/07 00:55:52;;;;;;;18.77;12.77;;;7.20;90.60;;;;;;5034860;28;20211;-76
2023/04/07 00:58:29;;;;;;;20.02;12.60;;;7.30;90.50;;;;;;5030207;28;20255;-75
2023/04/07 01:01:10;;;;;;;17.08;13.00;;;7.40;90.50;;;;;;5028181;28;20234;-75
2023/04/07 01:03:46;;;;;;;17.90;12.35;;;7.30;90.60;;;;;;5024180;28;20237;-76
2023/04/07 01:06:22;;;;;;;16.58;12.57;;;7.30;90.60;;;;;;5043247;28;20202;-76
2023/04/07 01:09:04;;;;;;;19.10;13.75;;;7.30;90.60;;;;;;5027975;28;20211;-75
2023/04/07 01:11:59;;;;;;;22.98;12.88;;;7.30;90.50;;;;;;5033835;28;20293;-75
2023/04/07 01:14:37;;;;;;;18.08;13.00;;;7.30;90.50;;;;;;5029439;28;20285;-76
2023/04/07 01:17:12;;;;;;;16.33;11.82;;;7.20;90.60;;;;;;5041247;28;20210;-75
2023/04/07 01:19:49;;;;;;;17.10;11.77;;;7.20;90.60;;;;;;5042765;28;20304;-76
2023/04/07 01:22:21;;;;;;;15.00;12.60;;;7.20;90.60;;;;;;5049208;28;20263;-77
2023/04/07 01:25:20;;;;;;;22.73;14.07;;;7.20;90.60;;;;;;5044583;28;20276;-75
2023/04/07 01:28:19;;;;;;;14.48;12.30;;;7.10;90.80;;;;;;5041095;28;20200;-76
2023/04/07 01:31:07;;;;;;;16.38;11.90;;;7.10;90.70;;;;;;5026605;28;20201;-76
2023/04/07 01:33:41;;;;;;;19.85;13.23;;;7.10;90.80;;;;;;5042147;28;20234;-75
2023/04/07 01:36:27;;;;;;;16.42;12.27;;;7.10;90.70;;;;;;5032394;28;20206;-76
2023/04/07 01:39:02;;;;;;;17.63;11.98;;;7.00;91.10;;;;;;5032249;28;20287;-76
2023/04/07 01:41:31;;;;;;;15.30;11.77;;;7.00;90.90;;;;;;5035922;28;20207;-76
2023/04/07 01:46:45;;;;;;;19.25;12.20;;;7.10;90.90;;;;;;5040447;28;20222;-76
2023/04/07 01:49:26;;;;;;;16.38;13.30;;;7.10;90.80;;;;;;5046933;28;20582;-76
2023/04/07 01:52:01;;;;;;;13.93;12.45;;;7.10;90.70;;;;;;5042216;28;20728;-76
2023/04/07 01:54:30;;;;;;;19.20;12.70;;;7.10;90.70;;;;;;5026395;28;20226;-76
2023/04/07 01:57:02;;;;;;;19.38;12.20;;;7.20;90.70;;;;;;5043001;28;20694;-75
2023/04/07 01:59:57;;;;;;;15.73;12.18;;;7.20;90.50;;;;;;5044577;28;20217;-75
2023/04/07 02:02:27;;;;;;;15.80;11.50;;;7.20;90.50;;;;;;5049122;28;20232;-76
2023/04/07 02:05:08;;;;;;;17.10;12.43;;;7.10;90.40;;;;;;5047270;28;20198;-77
2023/04/07 02:07:45;;;;;;;18.90;12.68;;;7.10;90.40;;;;;;5038873;28;20264;-74
2023/04/07 02:10:19;;;;;;;16.33;13.90;;;7.10;90.30;;;;;;5016921;28;20245;-75
2023/04/07 02:12:55;;;;;;;16.10;12.30;;;7.10;90.40;;;;;;5022154;28;20219;-77
2023/04/07 02:15:30;;;;;;;14.57;12.57;;;7.00;90.40;;;;;;5033540;28;20260;-76
2023/04/07 02:18:05;;;;;;;15.02;11.40;;;6.90;90.40;;;;;;5041014;28;20235;-75
2023/04/07 02:20:38;;;;;;;14.32;12.00;;;6.90;90.60;;;;;;5037672;28;20204;-76
2023/04/07 02:23:25;;;;;;;23.20;13.00;;;6.80;90.60;;;;;;5039345;28;20258;-76
2023/04/07 02:25:57;;;;;;;18.40;12.68;;;6.70;90.70;;;;;;5047499;28;20722;-76
2023/04/07 02:28:27;;;;;;;14.43;11.85;;;6.70;90.80;;;;;;5043931;28;20268;-75
2023/04/07 02:31:00;;;;;;;15.68;12.20;;;6.70;91.00;;;;;;5049255;28;20203;-76
2023/04/07 02:33:33;;;;;;;14.77;12.30;;;6.70;91.00;;;;;;5042387;28;20324;-76
2023/04/07 02:36:03;;;;;;;17.48;12.88;;;6.60;91.00;;;;;;5042192;28;20278;-76
2023/04/07 02:38:33;;;;;;;14.48;12.00;;;6.60;91.10;;;;;;5051738;28;20204;-77
2023/04/07 02:41:03;;;;;;;15.05;12.27;;;6.60;91.20;;;;;;5039139;28;20202;-76
2023/04/07 02:43:39;;;;;;;13.43;11.77;;;6.60;91.20;;;;;;5054234;28;20648;-75
2023/04/07 02:46:10;;;;;;;17.58;14.25;;;6.70;91.20;;;;;;5046195;28;20202;-76
2023/04/07 02:48:48;;;;;;;15.00;12.65;;;6.60;91.10;;;;;;5054820;28;20206;-76
2023/04/07 02:51:16;;;;;;;16.45;12.60;;;6.70;91.20;;;;;;5048306;28;20626;-76
2023/04/07 02:53:44;;;;;;;17.25;13.30;;;6.70;91.10;;;;;;5048133;28;20225;-76
2023/04/07 02:56:16;;;;;;;21.38;13.15;;;6.70;91.10;;;;;;5042587;28;20230;-75
2023/04/07 02:58:46;;;;;;;19.65;13.43;;;6.70;91.10;;;;;;5042584;28;20225;-76
2023/04/07 03:01:26;;;;;;;18.05;12.95;;;6.70;91.00;;;;;;5048927;28;20201;-75
2023/04/07 03:04:04;;;;;;;15.20;12.43;;;6.60;91.00;;;;;;5042128;28;20261;-76
2023/04/07 03:06:33;;;;;;;17.30;12.43;;;6.60;91.10;;;;;;5055255;28;20582;-75
2023/04/07 03:09:07;;;;;;;15.55;13.07;;;6.50;91.10;;;;;;5054955;28;20227;-74
2023/04/07 03:11:34;;;;;;;18.13;13.05;;;6.50;91.10;;;;;;5051944;28;20252;-75
2023/04/07 03:14:04;;;;;;;24.38;13.57;;;6.50;91.20;;;;;;5044388;28;20302;-75
2023/04/07 03:16:35;;;;;;;14.23;12.20;;;6.50;91.30;;;;;;5049725;28;20209;-75
2023/04/07 03:19:16;;;;;;;16.70;12.82;;;6.40;91.50;;;;;;5039768;28;20259;-74
2023/04/07 03:21:44;;;;;;;13.25;11.93;;;6.40;91.60;;;;;;5046756;28;20230;-75
2023/04/07 03:24:15;;;;;;;19.30;13.30;;;6.40;91.50;;;;;;5040154;28;20304;-76
2023/04/07 03:26:47;;;;;;;15.82;12.75;;;6.30;91.60;;;;;;5040247;28;20238;-76
2023/04/07 03:29:30;;;;;;;15.65;13.15;;;6.40;91.60;;;;;;5050772;28;20200;-74
2023/04/07 03:32:01;;;;;;;19.52;13.70;;;6.40;91.60;;;;;;5047525;28;20212;-76
2023/04/07 03:34:33;;;;;;;19.95;12.60;;;6.30;91.60;;;;;;5051293;28;20230;-75
2023/04/07 03:37:00;;;;;;;17.55;12.20;;;6.40;91.70;;;;;;5046265;28;20200;-76
2023/04/07 03:39:39;;;;;;;16.35;12.93;;;6.20;91.70;;;;;;5042440;28;20201;-76
2023/04/07 03:42:10;;;;;;;16.90;13.13;;;6.30;91.90;;;;;;5039054;28;20720;-75
2023/04/07 03:44:49;;;;;;;16.35;13.85;;;6.20;91.80;;;;;;5040591;28;20208;-75
2023/04/07 03:47:19;;;;;;;18.15;14.23;;;6.20;91.90;;;;;;5039399;28;20212;-76
2023/04/07 03:49:50;;;;;;;18.20;13.70;;;6.10;92.00;;;;;;5040807;28;20208;-75
2023/04/07 03:52:21;;;;;;;15.15;13.40;;;6.10;92.00;;;;;;5041679;28;20227;-76
2023/04/07 03:54:51;;;;;;;15.63;12.85;;;6.00;92.20;;;;;;5046954;28;20227;-76
2023/04/07 03:57:22;;;;;;;16.40;12.55;;;6.00;92.30;;;;;;5038842;28;20209;-76
2023/04/07 03:59:50;;;;;;;16.63;13.35;;;6.00;92.40;;;;;;5042166;28;20207;-76
2023/04/07 04:02:24;;;;;;;14.93;12.43;;;6.00;92.50;;;;;;5045348;28;20228;-76
2023/04/07 04:04:58;;;;;;;15.93;14.25;;;6.00;92.60;;;;;;5045212;28;20191;-76
2023/04/07 04:07:30;;;;;;;14.45;13.05;;;6.00;92.50;;;;;;5027831;28;20208;-75
2023/04/07 04:10:02;;;;;;;17.83;13.00;;;6.00;92.50;;;;;;5041733;28;20204;-75
2023/04/07 04:12:29;;;;;;;16.60;13.85;;;6.00;92.50;;;;;;5050828;28;20249;-76
2023/04/07 04:15:06;;;;;;;18.02;13.95;;;5.90;92.70;;;;;;5040032;28;20223;-76
2023/04/07 04:17:45;;;;;;;16.20;14.00;;;6.00;92.70;;;;;;5048646;28;20691;-76
2023/04/07 04:20:18;;;;;;;24.73;13.52;;;5.90;92.70;;;;;;5048045;28;20204;-79
2023/04/07 04:22:56;;;;;;;19.77;14.25;;;5.90;92.70;;;;;;5051890;28;20260;-76
2023/04/07 04:25:29;;;;;;;20.10;15.35;;;5.90;92.70;;;;;;5036717;28;20212;-79
2023/04/07 04:28:18;;;;;;;15.65;12.45;;;6.00;92.70;;;;;;5052162;28;20227;-74
2023/04/07 04:30:49;;;;;;;16.67;12.50;;;6.00;92.70;;;;;;5053648;28;20203;-76
2023/04/07 04:33:16;;;;;;;16.48;12.73;;;5.90;92.70;;;;;;5049297;28;20236;-76
2023/04/07 04:35:52;;;;;;;18.35;14.23;;;5.90;92.70;;;;;;5051953;28;20285;-75
2023/04/07 04:38:25;;;;;;;16.80;12.80;;;5.90;92.70;;;;;;5048088;28;20195;-75
2023/04/07 04:40:56;;;;;;;15.50;13.35;;;5.90;92.70;;;;;;5050507;28;20200;-75
2023/04/07 04:43:24;;;;;;;15.98;13.95;;;5.90;93.00;;;;;;5054126;28;20239;-76
2023/04/07 04:45:58;;;;;;;17.10;13.55;;;5.90;92.80;;;;;;5052358;28;20204;-75
2023/04/07 04:48:29;;;;;;;20.95;13.50;;;5.90;92.80;;;;;;5053154;28;20258;-75
2023/04/07 04:51:07;;;;;;;13.93;12.13;;;5.90;92.80;;;;;;5052124;28;20235;-75
2023/04/07 04:53:39;;;;;;;17.13;13.18;;;5.90;92.90;;;;;;5034783;28;20262;-76
2023/04/07 04:56:27;;;;;;;18.65;13.77;;;5.90;92.80;;;;;;5042211;28;20231;-75
2023/04/07 04:59:12;;;;;;;15.30;12.80;;;6.00;93.10;;;;;;5044604;28;20202;-76
2023/04/07 05:01:44;;;;;;;19.40;14.05;;;5.90;92.80;;;;;;5026803;28;20299;-75
2023/04/07 05:04:17;;;;;;;15.27;13.15;;;6.00;92.80;;;;;;5041165;28;20254;-75
2023/04/07 05:06:47;;;;;;;17.23;13.70;;;6.00;92.80;;;;;;5051302;28;20234;-75
2023/04/07 05:09:16;;;;;;;23.60;15.10;;;5.90;92.70;;;;;;5040770;28;20208;-75
2023/04/07 05:11:45;;;;;;;14.27;12.40;;;5.90;92.70;;;;;;5046492;28;20197;-75
2023/04/07 05:14:20;;;;;;;17.65;14.77;;;6.00;92.70;;;;;;5048157;28;20228;-76
2023/04/07 05:16:51;;;;;;;19.58;14.60;;;6.00;92.60;;;;;;5041893;28;20748;-75
2023/04/07 05:19:28;;;;;;;16.88;13.23;;;6.00;92.60;;;;;;5040142;28;20207;-77
2023/04/07 05:22:03;;;;;;;16.67;14.48;;;6.10;92.60;;;;;;5047653;28;20202;-75
2023/04/07 05:24:46;;;;;;;15.35;13.75;;;6.10;92.40;;;;;;5035240;28;20203;-75
2023/04/07 05:27:20;;;;;;;14.88;12.25;;;6.10;92.40;;;;;;5040939;28;20208;-76
2023/04/07 05:29:55;;;;;;;14.52;12.85;;;6.10;92.30;;;;;;5025504;28;20601;-75
2023/04/07 05:32:23;;;;;;;22.88;13.57;;;6.20;92.30;;;;;;5049182;28;20235;-75
2023/04/07 05:34:59;;;;;;;23.27;14.93;;;6.20;92.20;;;;;;5035225;28;20205;-76
2023/04/07 05:37:40;;;;;;;19.95;13.30;;;6.30;92.10;;;;;;5041094;28;20213;-76
2023/04/07 05:40:13;;;;;;;19.30;13.50;;;6.30;92.00;;;;;;5038392;28;20287;-74
2023/04/07 05:42:55;;;;;;;19.10;13.65;;;6.50;91.90;;;;;;5044038;28;20224;-74
2023/04/07 05:45:30;;;;;;;13.68;11.80;;;6.70;91.70;;;;;;5043338;28;20242;-74
2023/04/07 05:48:16;;;;;;;15.40;13.77;;;7.10;91.10;;;;;;5041937;28;20258;-75
2023/04/07 05:50:46;;;;;;;18.33;14.20;;;7.80;90.50;;;;;;5046810;28;20257;-75
2023/04/07 05:53:24;;;;;;;15.00;13.40;;;8.50;88.60;;;;;;5042908;28;20231;-74
2023/04/07 05:55:57;;;;;;;15.10;13.50;;;9.10;86.60;;;;;;5041500;28;20212;-74
2023/04/07 05:58:37;;;;;;;16.42;11.95;;;9.50;84.80;;;;;;5041821;28;20195;-74
2023/04/07 06:01:16;;;;;;;17.55;12.85;;;9.90;83.40;;;;;;5044249;28;20206;-75
2023/04/07 06:03:44;;;;;;;16.23;13.20;;;10.40;80.60;;;;;;5038219;28;20224;-75
2023/04/07 06:06:14;;;;;;;14.25;12.32;;;10.80;79.50;;;;;;5047430;28;20291;-75
2023/04/07 06:08:47;;;;;;;14.02;12.13;;;11.20;78.20;;;;;;5047071;28;20210;-75
2023/04/07 06:11:26;;;;;;;13.63;11.68;;;11.70;76.70;;;;;;5034443;28;20202;-75
2023/04/07 06:13:59;;;;;;;14.32;12.50;;;12.10;75.10;;;;;;5041368;28;20223;-77
2023/04/07 06:16:37;;;;;;;13.85;12.45;;;12.50;74.10;;;;;;5037892;28;20276;-76
2023/04/07 06:19:06;;;;;;;13.70;11.82;;;13.10;73.00;;;;;;5043374;28;20203;-76
2023/04/07 06:21:44;;;;;;;15.32;12.82;;;13.50;71.10;;;;;;5045633;28;20196;-74
2023/04/07 06:24:21;;;;;;;16.38;12.68;;;13.80;69.60;;;;;;5047633;28;20227;-76
2023/04/07 06:26:52;;;;;;;19.05;12.35;;;14.00;69.00;;;;;;5052659;28;20207;-75
2023/04/07 06:29:20;;;;;;;14.38;12.75;;;14.10;68.00;;;;;;5055755;28;20286;-75
2023/04/07 06:31:51;;;;;;;14.73;12.65;;;14.00;67.60;;;;;;5054359;28;20215;-75
2023/04/07 06:34:18;;;;;;;15.15;13.13;;;14.30;67.10;;;;;;5052497;28;20215;-74
2023/04/07 06:37:04;;;;;;;13.40;11.65;;;14.50;66.50;;;;;;5052669;28;20225;-75
2023/04/07 06:39:37;;;;;;;13.48;11.65;;;14.70;65.80;;;;;;5049584;28;20211;-76
2023/04/07 06:42:07;;;;;;;13.60;12.15;;;14.80;65.20;;;;;;5049283;28;20206;-75
2023/04/07 06:44:42;;;;;;;12.93;11.57;;;14.70;65.10;;;;;;5056535;28;20243;-78
2023/04/07 06:47:10;;;;;;;13.90;12.50;;;15.10;64.90;;;;;;5053425;28;20236;-75
2023/04/07 06:49:41;;;;;;;14.38;12.52;;;15.50;64.10;;;;;;5052629;28;20211;-77
2023/04/07 06:52:09;;;;;;;12.17;10.87;;;15.60;63.70;;;;;;5053441;28;20248;-75
2023/04/07 06:54:44;;;;;;;15.33;12.60;;;15.90;63.50;;;;;;5046863;28;20885;-75
2023/04/07 06:57:12;;;;;;;12.90;11.60;;;16.30;62.20;;;;;;5045230;28;20478;-74
2023/04/07 06:59:50;;;;;;;13.20;11.93;;;16.50;61.50;;;;;;5052387;28;20537;-75
2023/04/07 07:02:26;;;;;;;14.60;12.47;;;16.90;60.90;;;;;;5045368;28;20865;-75
2023/04/07 07:04:59;;;;;;;13.37;11.87;;;17.70;60.10;;;;;;5031392;28;20442;-73
2023/04/07 07:07:30;;;;;;;13.33;11.93;;;18.40;58.40;;;;;;5048085;28;20445;-73
2023/04/07 07:09:59;;;;;;;12.60;11.50;;;18.50;57.60;;;;;;5037827;28;20457;-73
2023/04/07 07:12:40;;;;;;;12.50;11.20;;;19.00;57.30;;;;;;5039586;28;20522;-74
2023/04/07 07:15:29;;;;;;;12.53;11.03;;;19.40;56.10;;;;;;5043879;28;20448;-73
2023/04/07 07:18:07;;;;;;;13.50;11.80;;;19.90;55.50;;;;;;5044386;28;20443;-72
2023/04/07 07:20:41;;;;;;;14.03;12.27;;;19.90;54.30;;;;;;5045677;28;20496;-74
2023/04/07 07:23:08;;;;;;;12.20;11.00;;;19.90;53.80;;;;;;5051091;28;20475;-72
2023/04/07 07:25:39;;;;;;;12.00;10.70;;;19.40;53.90;;;;;;5043484;28;20445;-74
2023/04/07 07:28:08;;;;;;;12.47;11.27;;;19.60;54.10;;;;;;5045926;28;20460;-73
2023/04/07 07:30:39;;;;;;;12.70;11.40;;;19.90;53.50;;;;;;5044475;28;20506;-74
2023/04/07 07:33:14;;;;;;;13.20;11.40;;;19.50;53.30;;;;;;5053127;28;20470;-73
2023/04/07 07:35:46;;;;;;;12.73;11.53;;;19.30;53.40;;;;;;5048019;28;20493;-74
2023/04/07 07:38:21;;;;;;;11.50;10.40;;;19.20;54.00;;;;;;5056716;28;20868;-75
2023/04/07 07:41:03;;;;;;;11.93;10.70;;;19.30;53.20;;;;;;5022048;28;20456;-77
2023/04/07 07:43:32;;;;;;;13.80;11.27;;;19.00;53.90;;;;;;5032806;28;20479;-76
2023/04/07 07:46:10;;;;;;;13.53;11.77;;;19.10;53.60;;;;;;5047091;28;20493;-74
2023/04/07 07:48:37;;;;;;;12.17;10.93;;;19.30;53.60;;;;;;5041737;28;20452;-78
2023/04/07 07:51:06;;;;;;;13.47;11.20;;;19.90;52.80;;;;;;5041365;28;20529;-75
2023/04/07 07:54:00;;;;;;;14.63;10.83;;;20.40;52.30;;;;;;5046761;28;20482;-73
2023/04/07 07:59:28;;;;;;;12.03;10.77;;;20.50;50.10;;;;;;5035717;28;20454;-76
2023/04/07 08:02:05;;;;;;;11.50;10.30;;;20.40;49.90;;;;;;5045548;28;20446;-74
2023/04/07 08:04:38;;;;;;;12.20;9.70;;;20.70;49.70;;;;;;5041634;28;20510;-73
2023/04/07 08:07:35;;;;;;;12.10;10.90;;;20.80;49.30;;;;;;5044392;28;20438;-75
2023/04/07 08:10:10;;;;;;;11.33;10.13;;;21.20;48.80;;;;;;5033024;28;20454;-72
2023/04/07 08:12:45;;;;;;;11.73;10.00;;;21.40;47.90;;;;;;5024919;28;20469;-75
2023/04/07 08:15:26;;;;;;;10.30;9.30;;;21.00;47.90;;;;;;5045311;28;20456;-72
2023/04/07 08:18:07;;;;;;;;;;;;;;;;;;;;;
2023/04/07 08:20:52;;;;;;;12.40;10.60;;;21.40;48.20;;;;;;5040034;28;20452;-75
2023/04/07 08:23:22;;;;;;;14.77;10.50;;;21.50;47.60;;;;;;5040442;28;20479;-74
2023/04/07 08:25:53;;;;;;;12.00;10.20;;;21.50;47.80;;;;;;5044902;28;20442;-76
2023/04/07 08:28:25;;;;;;;11.60;9.70;;;21.60;47.10;;;;;;5038139;28;20489;-78
2023/04/07 08:30:59;;;;;;;10.87;9.63;;;21.80;46.70;;;;;;5044557;28;20453;-73
2023/04/07 08:33:35;;;;;;;13.73;9.33;;;21.20;47.00;;;;;;5041480;28;20512;-74
2023/04/07 08:36:03;;;;;;;11.27;10.17;;;21.00;47.10;;;;;;5037385;28;20513;-75
2023/04/07 08:38:49;;;;;;;12.20;9.57;;;21.00;47.30;;;;;;5037673;28;20450;-75
2023/04/07 08:41:38;;;;;;;12.20;10.20;;;21.20;47.40;;;;;;5039515;28;20442;-75
2023/04/07 08:44:12;;;;;;;11.60;9.40;;;21.40;47.10;;;;;;5035130;28;20558;-75
2023/04/07 08:46:52;;;;;;;10.57;9.50;;;21.40;46.50;;;;;;5040721;28;20450;-74
2023/04/07 08:49:28;;;;;;;11.30;9.50;;;21.40;46.50;;;;;;5050858;28;20438;-74
2023/04/07 08:51:58;;;;;;;10.70;9.50;;;21.10;46.30;;;;;;5047971;28;20454;-75
2023/04/07 08:54:32;;;;;;;10.97;9.87;;;20.80;46.60;;;;;;5037225;28;20447;-75
2023/04/07 08:57:06;;;;;;;9.70;8.70;;;20.70;46.70;;;;;;5042479;28;20513;-75
2023/04/07 08:59:42;;;;;;;10.97;9.00;;;20.60;46.80;;;;;;5041520;28;20947;-78
2023/04/07 09:02:16;;;;;;;10.67;9.57;;;20.50;46.70;;;;;;5015998;28;20442;-74
2023/04/07 09:04:45;;;;;;;9.90;9.00;;;20.30;46.90;;;;;;5038367;28;20457;-72
2023/04/07 09:07:30;;;;;;;14.30;9.30;;;20.20;47.00;;;;;;5050636;28;20449;-76
2023/04/07 09:10:03;;;;;;;15.10;9.57;;;20.00;47.10;;;;;;5048529;28;20458;-79
2023/04/07 09:12:33;;;;;;;12.10;9.00;;;20.30;46.90;;;;;;5039911;28;20469;-75
2023/04/07 09:17:52;;;;;;;10.80;9.03;;;20.30;46.60;;;;;;5032710;28;20629;-75
2023/04/07 09:20:28;;;;;;;12.03;9.00;;;20.00;46.60;;;;;;5050499;28;20464;-75
2023/04/07 09:22:59;;;;;;;9.53;8.53;;;20.10;46.60;;;;;;5043175;28;20464;-76
2023/04/07 09:25:32;;;;;;;8.43;7.57;;;20.00;46.70;;;;;;5044689;28;20445;-75
2023/04/07 09:28:08;;;;;;;12.73;8.90;;;20.00;46.60;;;;;;5043124;28;20441;-74
2023/04/07 09:30:52;;;;;;;12.00;9.13;;;20.10;46.50;;;;;;5047342;28;20456;-74
2023/04/07 09:33:33;;;;;;;12.93;9.10;;;19.70;46.90;;;;;;5042803;28;20480;-75
2023/04/07 09:36:01;;;;;;;9.60;8.60;;;19.90;47.40;;;;;;5051286;28;20447;-74
2023/04/07 09:38:42;;;;;;;8.90;8.00;;;20.30;47.20;;;;;;5048571;28;20452;-75
2023/04/07 09:41:13;;;;;;;10.50;8.97;;;20.40;46.50;;;;;;5052210;28;20503;-77
2023/04/07 09:43:43;;;;;;;10.90;9.02;;;20.10;46.70;;;;;;5038775;28;20449;-76
2023/04/07 09:46:14;;;;;;;11.10;9.70;;;19.80;47.10;;;;;;5043322;28;20659;-74
2023/04/07 09:49:07;;;;;;;10.47;8.83;;;19.50;47.50;;;;;;5041971;28;20453;-76
2023/04/07 09:51:34;;;;;;;11.10;8.80;;;19.50;47.50;;;;;;5043161;28;20542;-76
2023/04/07 09:54:01;;;;;;;9.67;8.50;;;19.30;47.30;;;;;;5046250;28;20512;-77
2023/04/07 09:56:30;;;;;;;12.40;9.43;;;19.20;47.50;;;;;;5046822;28;20556;-77
2023/04/07 09:58:57;;;;;;;11.97;10.30;;;18.90;47.80;;;;;;5046664;28;20810;-74
2023/04/07 10:01:25;;;;;;;9.70;8.80;;;18.80;48.20;;;;;;5045153;28;20483;-75
2023/04/07 10:03:55;;;;;;;15.57;10.00;;;18.80;48.20;;;;;;5041765;28;20471;-74
2023/04/07 10:06:22;;;;;;;12.57;9.33;;;18.60;48.20;;;;;;5047417;28;20457;-80
2023/04/07 10:08:51;;;;;;;10.33;9.30;;;18.40;48.20;;;;;;5047978;28;20453;-81
2023/04/07 10:11:18;;;;;;;13.03;9.37;;;18.20;48.50;;;;;;5048181;28;20787;-79
2023/04/07 10:13:45;;;;;;;11.20;9.77;;;17.80;48.60;;;;;;5051716;28;20611;-81
2023/04/07 10:16:12;;;;;;;10.30;9.20;;;17.90;49.20;;;;;;5055851;28;20450;-80
2023/04/07 10:18:42;;;;;;;9.83;8.93;;;17.80;48.80;;;;;;5042921;28;20812;-77
2023/04/07 10:21:13;;;;;;;10.67;9.57;;;17.80;49.20;;;;;;5055301;28;20481;-79
2023/04/07 10:23:53;;;;;;;10.10;9.00;;;17.80;49.10;;;;;;5031891;28;20474;-78
2023/04/07 10:26:24;;;;;;;11.13;8.67;;;17.90;48.90;;;;;;5046714;28;20545;-81
2023/04/07 10:28:55;;;;;;;12.90;11.53;;;17.70;49.30;;;;;;5043654;28;20447;-79
2023/04/07 10:31:23;;;;;;;10.40;9.27;;;17.50;49.20;;;;;;5046461;28;20949;-80
2023/04/07 10:33:53;;;;;;;12.90;10.43;;;17.10;49.80;;;;;;5040354;28;20547;-79
2023/04/07 10:36:23;;;;;;;10.75;9.35;;;16.80;50.50;;;;;;5043220;28;20848;-84
2023/04/07 10:39:22;;;;;;;10.30;9.18;;;16.40;50.90;;;;;;5041279;28;20196;-79
2023/04/07 10:41:50;;;;;;;10.30;9.27;;;16.40;50.70;;;;;;5041803;28;20211;-80
2023/04/07 10:44:47;;;;;;;10.17;9.20;;;16.70;51.60;;;;;;5043271;28;20482;-81
2023/04/07 10:47:15;;;;;;;9.97;9.00;;;16.80;51.70;;;;;;5044839;28;20799;-79
2023/04/07 10:50:16;;;;;;;11.30;9.50;;;16.80;51.20;;;;;;5045430;28;20450;-81
2023/04/07 10:52:44;;;;;;;9.63;8.60;;;16.90;51.50;;;;;;5046540;28;20471;-80
2023/04/07 10:55:33;;;;;;;10.37;9.30;;;16.80;51.50;;;;;;5046651;28;20540;-80
2023/04/07 10:58:22;;;;;;;12.80;9.18;;;16.80;51.60;;;;;;5042958;28;20558;-79
2023/04/07 11:01:22;;;;;;;11.13;8.57;;;16.40;51.60;;;;;;5044542;28;20228;-82
2023/04/07 11:04:10;;;;;;;8.60;7.70;;;16.50;51.90;;;;;;5044053;28;20705;-83
2023/04/07 11:06:47;;;;;;;14.93;9.20;;;16.50;51.50;;;;;;5045231;28;20468;-81
2023/04/07 11:09:19;;;;;;;11.60;8.83;;;16.40;51.90;;;;;;5042499;28;20238;-81
2023/04/07 11:11:47;;;;;;;10.00;8.50;;;16.50;52.00;;;;;;5057889;28;20445;-80
2023/04/07 11:14:26;;;;;;;11.63;8.88;;;16.00;52.10;;;;;;5057731;28;20250;-80
2023/04/07 11:16:53;;;;;;;10.85;8.93;;;16.30;53.00;;;;;;5055390;28;20615;-80
2023/04/07 11:19:24;;;;;;;9.70;8.45;;;16.40;52.40;;;;;;5049907;28;20206;-79
2023/04/07 11:22:15;;;;;;;15.75;10.13;;;16.20;52.40;;;;;;5053168;28;20217;-79
2023/04/07 11:24:43;;;;;;;10.90;8.93;;;16.40;52.20;;;;;;5056978;28;20213;-80
2023/04/07 11:27:13;;;;;;;11.63;10.30;;;16.20;52.20;;;;;;5055075;28;20199;-80
2023/04/07 11:29:40;;;;;;;10.00;9.00;;;16.10;52.50;;;;;;5056777;28;20205;-80
2023/04/07 11:32:07;;;;;;;10.60;9.50;;;16.00;52.60;;;;;;5054123;28;20213;-81
2023/04/07 11:34:35;;;;;;;10.57;8.98;;;16.00;53.20;;;;;;5042231;28;20278;-80
2023/04/07 11:37:23;;;;;;;13.93;9.88;;;16.00;53.50;;;;;;5059140;28;20244;-80
2023/04/07 11:39:53;;;;;;;10.75;9.02;;;15.90;53.40;;;;;;5045938;28;20200;-80
2023/04/07 11:42:32;;;;;;;10.80;8.68;;;15.90;53.50;;;;;;5050124;28;20253;-80
2023/04/07 11:44:59;;;;;;;10.32;7.68;;;15.80;53.30;;;;;;5051984;28;20310;-81
2023/04/07 11:47:34;;;;;;;11.25;9.18;;;15.90;53.70;;;;;;5047854;28;20278;-80
2023/04/07 11:50:01;;;;;;;9.43;8.37;;;15.90;53.60;;;;;;5054925;28;20201;-80
2023/04/07 11:52:41;;;;;;;12.30;9.40;;;15.90;53.60;;;;;;5042433;28;20480;-82
2023/04/07 11:55:17;;;;;;;10.68;9.05;;;15.90;53.50;;;;;;5043154;28;20464;-80
2023/04/07 11:57:44;;;;;;;11.95;9.70;;;15.70;53.60;;;;;;5049316;28;20230;-80
2023/04/07 12:00:13;;;;;;;11.00;9.80;;;15.80;53.60;;;;;;5049547;28;20201;-80
2023/04/07 12:02:40;;;;;;;11.98;8.70;;;15.70;53.50;;;;;;5051279;28;20229;-81
2023/04/07 12:05:10;;;;;;;10.85;9.75;;;15.80;53.60;;;;;;5047739;28;20196;-81
2023/04/07 12:07:40;;;;;;;9.68;8.68;;;15.80;53.40;;;;;;5055795;28;20260;-80
2023/04/07 12:10:22;;;;;;;13.60;11.30;;;15.60;53.50;;;;;;5053586;28;20193;-81
2023/04/07 12:12:50;;;;;;;11.68;9.57;;;15.70;53.60;;;;;;5044230;28;20533;-81
2023/04/07 12:15:17;;;;;;;9.85;8.70;;;15.80;53.20;;;;;;5057337;28;20247;-80
2023/04/07 12:17:48;;;;;;;10.73;7.85;;;15.70;53.50;;;;;;5053734;28;20697;-79
2023/04/07 12:20:16;;;;;;;10.73;8.65;;;15.60;53.60;;;;;;5048022;28;20243;-75
2023/04/07 12:22:45;;;;;;;10.00;8.45;;;15.60;53.40;;;;;;5056287;28;20260;-79
2023/04/07 12:25:12;;;;;;;10.35;8.93;;;15.60;53.90;;;;;;5048802;28;20205;-75
2023/04/07 12:27:38;;;;;;;11.10;7.65;;;15.50;53.70;;;;;;5042206;28;20578;-76
2023/04/07 12:30:07;;;;;;;11.20;9.75;;;15.50;54.10;;;;;;5048092;28;20238;-78
2023/04/07 12:32:36;;;;;;;12.32;9.70;;;15.30;54.20;;;;;;5049656;28;20232;-77
2023/04/07 12:35:04;;;;;;;12.27;9.98;;;15.50;53.90;;;;;;5054493;28;20199;-79
2023/04/07 12:37:31;;;;;;;11.73;9.10;;;15.60;53.60;;;;;;5049910;28;20304;-80
2023/04/07 12:40:02;;;;;;;12.98;10.27;;;15.60;53.80;;;;;;5052708;28;20474;-75
2023/04/07 12:42:29;;;;;;;12.93;10.05;;;15.70;54.20;;;;;;5054924;28;20284;-78
2023/04/07 12:44:56;;;;;;;11.10;8.73;;;15.50;54.60;;;;;;5047664;28;20297;-81
2023/04/07 12:47:24;;;;;;;13.03;9.80;;;15.60;55.20;;;;;;5052267;28;20486;-78
2023/04/07 12:49:51;;;;;;;12.15;10.80;;;15.70;54.80;;;;;;5045155;28;20792;-82
2023/04/07 12:52:18;;;;;;;12.20;10.10;;;15.80;54.20;;;;;;5055034;28;20303;-76
2023/04/07 12:54:45;;;;;;;12.68;10.00;;;15.60;54.40;;;;;;5051210;28;20702;-78
2023/04/07 12:57:14;;;;;;;13.10;9.23;;;15.70;54.10;;;;;;5053903;28;20232;-79
2023/04/07 12:59:41;;;;;;;14.43;9.65;;;15.60;54.50;;;;;;5047953;28;20204;-76
2023/04/07 13:02:10;;;;;;;15.13;10.25;;;15.60;54.50;;;;;;5055602;28;20225;-79
2023/04/07 13:04:39;;;;;;;11.75;8.85;;;15.50;54.90;;;;;;5054827;28;20206;-76
2023/04/07 13:07:07;;;;;;;10.93;9.80;;;15.60;55.00;;;;;;5048302;28;20289;-75
2023/04/07 13:09:34;;;;;;;11.70;10.15;;;15.70;54.40;;;;;;5041596;28;20452;-78
2023/04/07 13:12:01;;;;;;;14.90;9.95;;;15.60;54.00;;;;;;5047418;28;20773;-76
2023/04/07 13:14:29;;;;;;;10.77;8.00;;;15.70;54.20;;;;;;5045603;28;20576;-75
2023/04/07 13:16:56;;;;;;;11.27;8.60;;;15.70;54.20;;;;;;5047361;28;20233;-77
2023/04/07 13:19:24;;;;;;;10.32;8.93;;;15.70;54.10;;;;;;5044051;28;20262;-78